Time;durP1;ratioP1;P1;durP2;ratioP2;P2;SDS_P1;SDS_P2;PMS_P1;PMS_P2;Temp;Humidity;BMP_temperature;BMP_pressure;BME280_temperature;BME280_humidity;BME280_pressure;Samples;Min_cycle;Max_cycle;Signal;HPM_P1;HPM_P2
2023/10/23 00:01:35;;;;;;;3.50;1.50;;;16.20;99.90;;;;;;4992422;28;20031;-40
2023/10/23 00:04:01;;;;;;;4.78;1.40;;;16.20;99.90;;;;;;4974879;28;20088;-37
2023/10/23 00:06:26;;;;;;;4.57;1.40;;;16.20;99.90;;;;;;4992146;28;20023;-37
2023/10/23 00:08:52;;;;;;;2.92;1.50;;;16.20;99.90;;;;;;4992239;28;20058;-36
2023/10/23 00:11:22;;;;;;;3.42;1.40;;;16.20;99.90;;;;;;4992491;28;20034;-37
2023/10/23 00:13:48;;;;;;;2.90;1.38;;;16.20;99.90;;;;;;4992204;28;20028;-42
2023/10/23 00:16:13;;;;;;;3.08;1.35;;;16.20;99.90;;;;;;4992010;28;20031;-40
2023/10/23 00:18:39;;;;;;;5.32;1.30;;;16.20;99.90;;;;;;4992094;28;20068;-41
2023/10/23 00:21:04;;;;;;;2.83;1.45;;;16.20;99.90;;;;;;4992157;28;20023;-43
2023/10/23 00:23:30;;;;;;;3.55;1.50;;;16.20;99.90;;;;;;4991952;28;20030;-41
2023/10/23 00:25:56;;;;;;;2.80;1.33;;;16.20;99.90;;;;;;4992003;28;20023;-41
2023/10/23 00:28:21;;;;;;;4.28;2.25;;;16.20;99.90;;;;;;4992033;28;20552;-38
2023/10/23 00:30:47;;;;;;;2.83;1.45;;;16.20;99.90;;;;;;4992123;28;20026;-43
2023/10/23 00:33:12;;;;;;;3.97;1.50;;;16.20;99.90;;;;;;4991971;28;20030;-45
2023/10/23 00:35:39;;;;;;;3.45;1.80;;;16.10;99.90;;;;;;4991825;28;20038;-39
2023/10/23 00:38:05;;;;;;;3.30;1.73;;;16.10;99.90;;;;;;4991667;28;20145;-42
2023/10/23 00:40:31;;;;;;;2.92;1.30;;;16.10;99.90;;;;;;4991943;28;20026;-40
2023/10/23 00:42:56;;;;;;;2.13;1.23;;;16.10;99.90;;;;;;4991773;28;20077;-39
2023/10/23 00:45:22;;;;;;;2.75;1.25;;;16.10;99.90;;;;;;4991765;28;20038;-41
2023/10/23 00:47:48;;;;;;;2.92;1.50;;;16.10;99.90;;;;;;4991818;28;20023;-37
2023/10/23 00:50:14;;;;;;;3.13;1.60;;;16.10;99.90;;;;;;4991857;28;20030;-38
2023/10/23 00:52:41;;;;;;;4.20;1.13;;;16.10;99.90;;;;;;4991613;28;20380;-40
2023/10/23 00:55:07;;;;;;;2.20;1.30;;;16.10;99.90;;;;;;4991766;28;20088;-39
2023/10/23 00:57:33;;;;;;;2.95;1.40;;;16.10;99.90;;;;;;4991611;28;20026;-43
2023/10/23 00:59:59;;;;;;;2.92;1.27;;;16.10;99.90;;;;;;4991812;28;20029;-39
2023/10/23 01:02:25;;;;;;;2.50;1.55;;;16.10;99.90;;;;;;4991823;28;20027;-38
2023/10/23 01:04:51;;;;;;;5.57;1.58;;;16.00;99.90;;;;;;4991666;28;20488;-39
2023/10/23 01:07:17;;;;;;;4.13;1.40;;;16.00;99.90;;;;;;4991507;28;20037;-38
2023/10/23 01:09:42;;;;;;;2.35;1.10;;;16.00;99.90;;;;;;4994413;28;20034;-38
2023/10/23 01:12:08;;;;;;;3.90;1.45;;;16.00;99.90;;;;;;4995490;28;20447;-39
2023/10/23 01:14:34;;;;;;;2.78;1.38;;;16.00;99.90;;;;;;4995487;28;20062;-39
2023/10/23 01:16:59;;;;;;;2.63;1.33;;;16.00;99.90;;;;;;4995209;28;20030;-41
2023/10/23 01:19:25;;;;;;;2.88;1.30;;;16.00;99.90;;;;;;4995428;28;20030;-39
2023/10/23 01:21:50;;;;;;;3.33;1.38;;;16.00;99.90;;;;;;4995234;28;20022;-39
2023/10/23 01:24:18;;;;;;;3.10;1.30;;;16.00;99.90;;;;;;4995240;28;20576;-39
2023/10/23 01:26:44;;;;;;;2.85;1.10;;;16.00;99.90;;;;;;4995121;28;20368;-39
2023/10/23 01:29:09;;;;;;;1.80;1.27;;;16.00;99.90;;;;;;4995325;28;20041;-38
2023/10/23 01:31:35;;;;;;;2.75;1.48;;;16.00;99.90;;;;;;4995174;28;20026;-38
2023/10/23 01:34:01;;;;;;;2.17;1.30;;;16.00;99.90;;;;;;4995167;28;20121;-39
2023/10/23 01:36:26;;;;;;;2.78;1.23;;;16.00;99.90;;;;;;4994794;28;20026;-39
2023/10/23 01:38:52;;;;;;;1.52;0.95;;;16.00;99.90;;;;;;4995028;28;20101;-39
2023/10/23 01:41:17;;;;;;;1.73;1.00;;;16.00;99.90;;;;;;4995260;28;20014;-39
2023/10/23 01:43:43;;;;;;;2.33;1.30;;;16.00;99.90;;;;;;4995332;28;20037;-39
2023/10/23 01:46:09;;;;;;;3.10;1.27;;;16.00;99.90;;;;;;4994791;28;20031;-39
2023/10/23 01:48:36;;;;;;;2.30;1.35;;;16.00;99.90;;;;;;4994887;28;20117;-39
2023/10/23 01:51:01;;;;;;;2.95;1.30;;;15.90;99.90;;;;;;4994672;28;20531;-39
2023/10/23 01:53:27;;;;;;;2.95;1.40;;;15.90;99.90;;;;;;4994742;28;20135;-38
2023/10/23 01:55:53;;;;;;;3.65;1.33;;;15.90;99.90;;;;;;4994617;28;20019;-39
2023/10/23 01:58:18;;;;;;;3.10;1.30;;;15.90;99.90;;;;;;4994508;28;20080;-39
2023/10/23 02:00:44;;;;;;;2.63;1.15;;;15.90;99.90;;;;;;4994652;28;20034;-39
2023/10/23 02:03:09;;;;;;;2.45;0.98;;;15.90;99.90;;;;;;4994604;28;20552;-39
2023/10/23 02:05:35;;;;;;;3.08;1.30;;;15.90;99.90;;;;;;4993068;28;20026;-38
2023/10/23 02:08:00;;;;;;;2.35;1.02;;;15.90;99.90;;;;;;4994481;28;20077;-38
2023/10/23 02:10:26;;;;;;;2.88;1.20;;;15.90;99.90;;;;;;4994509;28;20431;-39
2023/10/23 02:12:52;;;;;;;2.47;1.33;;;15.90;99.90;;;;;;4994409;28;20034;-38
2023/10/23 02:15:17;;;;;;;1.60;1.13;;;15.90;99.90;;;;;;4993066;28;20034;-39
2023/10/23 02:17:43;;;;;;;2.75;1.30;;;15.90;99.90;;;;;;4994205;28;20042;-39
2023/10/23 02:20:09;;;;;;;2.45;1.27;;;15.90;99.90;;;;;;4993351;28;20030;-37
2023/10/23 02:22:35;;;;;;;1.92;1.00;;;15.90;99.90;;;;;;4994417;28;20018;-40
2023/10/23 02:25:01;;;;;;;2.38;1.30;;;15.90;99.90;;;;;;4994403;28;20567;-39
2023/10/23 02:27:27;;;;;;;2.22;1.00;;;15.90;99.90;;;;;;4994222;28;20033;-39
2023/10/23 02:29:52;;;;;;;1.88;1.08;;;15.90;99.90;;;;;;4994145;28;20537;-37
2023/10/23 02:32:18;;;;;;;2.67;1.40;;;15.90;99.90;;;;;;4994015;28;20035;-38
2023/10/23 02:34:43;;;;;;;4.68;1.02;;;15.90;99.90;;;;;;4993757;28;20543;-38
2023/10/23 02:37:09;;;;;;;1.85;1.20;;;15.90;99.90;;;;;;4993841;28;20026;-38
2023/10/23 02:39:35;;;;;;;2.47;1.10;;;15.80;99.90;;;;;;4993947;28;20058;-38
2023/10/23 02:42:01;;;;;;;2.58;1.20;;;15.80;99.90;;;;;;4993740;28;20026;-39
2023/10/23 02:44:27;;;;;;;2.55;1.30;;;15.80;99.90;;;;;;4993952;28;20307;-39
2023/10/23 02:46:52;;;;;;;2.75;1.25;;;15.80;99.90;;;;;;4993689;28;20023;-38
2023/10/23 02:49:18;;;;;;;3.35;1.25;;;15.80;99.80;;;;;;4993707;28;20023;-39
2023/10/23 02:51:44;;;;;;;1.73;1.00;;;15.80;99.80;;;;;;4993762;28;20365;-38
2023/10/23 02:54:10;;;;;;;1.83;1.00;;;15.80;99.80;;;;;;4993817;28;20022;-41
2023/10/23 02:56:36;;;;;;;1.52;1.20;;;15.80;99.80;;;;;;4993501;28;20476;-41
2023/10/23 02:59:02;;;;;;;3.50;1.17;;;15.80;99.80;;;;;;4993764;28;20104;-40
2023/10/23 03:01:28;;;;;;;1.83;1.05;;;15.80;99.80;;;;;;4993545;28;20465;-39
2023/10/23 03:03:53;;;;;;;1.30;0.98;;;15.80;99.80;;;;;;4993358;28;20526;-41
2023/10/23 03:06:20;;;;;;;1.83;0.93;;;15.80;99.70;;;;;;4992072;28;20169;-41
2023/10/23 03:08:45;;;;;;;1.65;1.00;;;15.80;99.70;;;;;;4993426;28;20054;-42
2023/10/23 03:11:11;;;;;;;1.98;1.20;;;15.80;99.70;;;;;;4993445;28;20112;-41
2023/10/23 03:13:37;;;;;;;2.33;1.23;;;15.80;99.70;;;;;;4993624;28;20077;-39
2023/10/23 03:16:03;;;;;;;1.95;1.02;;;15.80;99.70;;;;;;4993168;28;20551;-41
2023/10/23 03:18:28;;;;;;;1.52;1.02;;;15.80;99.70;;;;;;4993022;28;20046;-42
2023/10/23 03:21:01;;;;;;;1.90;1.10;;;15.70;99.90;;;;;;4993112;28;20101;-42
2023/10/23 03:23:30;;;;;;;2.00;0.95;;;15.80;99.70;;;;;;4993136;28;20033;-40
2023/10/23 03:25:56;;;;;;;3.20;1.10;;;15.80;99.70;;;;;;4993051;28;20018;-40
2023/10/23 03:28:22;;;;;;;2.30;0.90;;;15.80;99.70;;;;;;4993059;28;20623;-45
2023/10/23 03:30:48;;;;;;;2.47;1.00;;;15.70;99.60;;;;;;4992967;28;20314;-42
2023/10/23 03:33:14;;;;;;;2.42;1.10;;;15.70;99.60;;;;;;4993005;28;20065;-41
2023/10/23 03:35:44;;;;;;;4.55;1.20;;;15.70;99.60;;;;;;4992775;28;20121;-38
2023/10/23 03:38:10;;;;;;;1.83;0.90;;;15.70;99.50;;;;;;4992697;28;20033;-39
2023/10/23 03:40:36;;;;;;;3.05;1.15;;;15.70;99.50;;;;;;4992741;28;20538;-42
2023/10/23 03:43:01;;;;;;;1.83;0.98;;;15.70;99.50;;;;;;4992590;28;20070;-43
2023/10/23 03:45:27;;;;;;;2.08;1.00;;;15.70;99.40;;;;;;4992570;28;20484;-39
2023/10/23 03:47:52;;;;;;;1.73;1.10;;;15.70;99.50;;;;;;4992550;28;20034;-40
2023/10/23 03:50:18;;;;;;;3.15;0.80;;;15.70;99.50;;;;;;4992859;28;20516;-43
2023/10/23 03:52:44;;;;;;;4.28;0.90;;;15.70;99.50;;;;;;4992527;28;20038;-42
2023/10/23 03:55:09;;;;;;;2.60;1.10;;;15.70;99.50;;;;;;4991133;28;20365;-39
2023/10/23 03:57:35;;;;;;;2.10;1.00;;;15.70;99.40;;;;;;4992424;28;20384;-40
2023/10/23 04:00:00;;;;;;;4.43;1.00;;;15.70;99.40;;;;;;4992423;28;20113;-43
2023/10/23 04:02:26;;;;;;;1.95;0.80;;;15.70;99.40;;;;;;4992308;28;20541;-39
2023/10/23 04:04:52;;;;;;;5.15;1.00;;;15.70;99.40;;;;;;4992285;28;20038;-38
2023/10/23 04:07:17;;;;;;;3.65;1.17;;;15.70;99.40;;;;;;4992316;28;20084;-39
2023/10/23 04:09:43;;;;;;;2.97;0.90;;;15.70;99.40;;;;;;4992349;28;20034;-40
2023/10/23 04:12:08;;;;;;;2.33;1.05;;;15.70;99.40;;;;;;4992292;28;20396;-39
2023/10/23 04:14:34;;;;;;;1.77;1.02;;;15.70;99.30;;;;;;4992233;28;20105;-37
2023/10/23 04:16:59;;;;;;;3.85;1.10;;;15.70;99.30;;;;;;4991878;28;20027;-38
2023/10/23 04:19:25;;;;;;;1.20;1.00;;;15.60;99.30;;;;;;4992491;28;20527;-37
2023/10/23 04:21:51;;;;;;;1.65;1.08;;;15.70;99.30;;;;;;4992739;28;20025;-37
2023/10/23 04:24:16;;;;;;;2.28;1.17;;;15.60;99.20;;;;;;4992434;28;20476;-37
2023/10/23 04:26:42;;;;;;;1.60;1.02;;;15.60;99.20;;;;;;4991964;28;20022;-38
2023/10/23 04:29:08;;;;;;;1.70;1.05;;;15.60;99.20;;;;;;4992582;28;20481;-37
2023/10/23 04:31:34;;;;;;;1.50;1.10;;;15.60;99.20;;;;;;4990684;28;20061;-38
2023/10/23 04:34:00;;;;;;;2.40;1.05;;;15.60;99.20;;;;;;4992055;28;20097;-38
2023/10/23 04:36:25;;;;;;;1.85;1.00;;;15.60;99.20;;;;;;4991835;28;20031;-37
2023/10/23 04:38:51;;;;;;;2.20;1.10;;;15.60;99.20;;;;;;4991936;28;20030;-38
2023/10/23 04:41:19;;;;;;;1.45;0.95;;;15.60;99.10;;;;;;4991924;28;20026;-37
2023/10/23 04:43:44;;;;;;;1.55;0.90;;;15.60;99.10;;;;;;4994385;28;20109;-39
2023/10/23 04:46:10;;;;;;;3.22;1.27;;;15.60;99.10;;;;;;4998124;28;20479;-38
2023/10/23 04:48:36;;;;;;;1.50;0.93;;;15.60;99.10;;;;;;4998452;28;20030;-39
2023/10/23 04:51:03;;;;;;;1.92;1.00;;;15.60;99.10;;;;;;4998404;28;20053;-39
2023/10/23 04:53:28;;;;;;;3.08;1.00;;;15.60;99.10;;;;;;4998287;28;20076;-39
2023/10/23 04:55:54;;;;;;;2.17;1.25;;;15.60;99.10;;;;;;4998267;28;20023;-39
2023/10/23 04:58:20;;;;;;;2.95;0.90;;;15.60;99.10;;;;;;4998123;28;20030;-39
2023/10/23 05:00:46;;;;;;;2.88;0.90;;;15.60;99.00;;;;;;4998237;28;20026;-39
2023/10/23 05:03:12;;;;;;;2.25;1.10;;;15.60;99.00;;;;;;4998401;28;20442;-38
2023/10/23 05:05:37;;;;;;;1.55;0.88;;;15.50;99.00;;;;;;4998198;28;20058;-41
2023/10/23 05:08:06;;;;;;;1.13;0.88;;;15.50;99.00;;;;;;4998239;28;20034;-39
2023/10/23 05:10:32;;;;;;;1.27;0.85;;;15.50;99.00;;;;;;4998299;28;20040;-39
2023/10/23 05:12:58;;;;;;;1.05;0.88;;;15.50;99.00;;;;;;4998040;28;20470;-39
2023/10/23 05:15:24;;;;;;;3.10;1.20;;;15.50;99.00;;;;;;4997972;28;20037;-38
2023/10/23 05:17:49;;;;;;;1.05;0.80;;;15.50;98.90;;;;;;4997979;28;20106;-39
2023/10/23 05:20:15;;;;;;;1.38;0.82;;;15.50;98.90;;;;;;4998089;28;20109;-39
2023/10/23 05:22:41;;;;;;;1.40;1.00;;;15.50;98.90;;;;;;4998102;28;20105;-39
2023/10/23 05:25:08;;;;;;;1.20;0.90;;;15.50;98.90;;;;;;4998008;28;20475;-38
2023/10/23 05:27:37;;;;;;;2.00;1.05;;;15.50;98.90;;;;;;4997944;28;20030;-39
2023/10/23 05:30:04;;;;;;;3.17;1.17;;;15.50;98.90;;;;;;4998017;28;20058;-39
2023/10/23 05:32:33;;;;;;;3.70;1.05;;;15.50;98.80;;;;;;4997816;28;20034;-39
2023/10/23 05:34:59;;;;;;;1.95;1.00;;;15.50;98.80;;;;;;4998049;28;20418;-39
2023/10/23 05:37:24;;;;;;;1.58;0.90;;;15.50;98.80;;;;;;4997847;28;20062;-36
2023/10/23 05:39:50;;;;;;;2.55;1.00;;;15.50;98.80;;;;;;4997953;28;20468;-37
2023/10/23 05:42:15;;;;;;;2.10;1.17;;;15.50;98.80;;;;;;4997626;28;20031;-37
2023/10/23 05:44:41;;;;;;;1.65;0.95;;;15.40;98.70;;;;;;4997896;28;20046;-38
2023/10/23 05:47:07;;;;;;;1.85;1.10;;;15.50;98.80;;;;;;4997871;28;20065;-37
2023/10/23 05:49:34;;;;;;;1.40;1.00;;;15.40;98.80;;;;;;4997936;28;20022;-40
2023/10/23 05:51:59;;;;;;;1.83;1.10;;;15.40;98.70;;;;;;4997800;28;20018;-39
2023/10/23 05:54:25;;;;;;;1.50;0.80;;;15.40;98.70;;;;;;4997116;28;20037;-39
2023/10/23 05:56:51;;;;;;;1.98;1.02;;;15.40;98.70;;;;;;4993655;28;20031;-39
2023/10/23 05:59:16;;;;;;;1.50;1.00;;;15.40;98.70;;;;;;4994694;28;20476;-39
2023/10/23 06:01:42;;;;;;;3.35;0.90;;;15.40;98.70;;;;;;4994631;28;20031;-38
2023/10/23 06:04:07;;;;;;;4.40;1.30;;;15.40;98.70;;;;;;4994544;28;20073;-37
2023/10/23 06:06:33;;;;;;;0.98;0.80;;;15.40;98.70;;;;;;4994474;28;20029;-39
2023/10/23 06:08:59;;;;;;;1.42;0.95;;;15.40;98.60;;;;;;4994535;28;20022;-41
2023/10/23 06:11:25;;;;;;;2.28;1.10;;;15.40;98.60;;;;;;4994368;28;20018;-37
2023/10/23 06:13:50;;;;;;;1.65;1.00;;;15.40;98.60;;;;;;4994358;28;20022;-37
2023/10/23 06:16:16;;;;;;;2.15;1.13;;;15.40;98.60;;;;;;4994291;28;20496;-39
2023/10/23 06:18:42;;;;;;;3.85;1.10;;;15.40;98.60;;;;;;4994563;28;20031;-38
2023/10/23 06:21:07;;;;;;;2.05;1.02;;;15.40;98.60;;;;;;4994325;28;20026;-39
2023/10/23 06:23:35;;;;;;;1.92;1.10;;;15.40;98.60;;;;;;4994376;28;20049;-39
2023/10/23 06:26:01;;;;;;;1.75;1.00;;;15.40;98.60;;;;;;4994095;28;20065;-38
2023/10/23 06:28:27;;;;;;;3.75;1.00;;;15.40;98.60;;;;;;4994034;28;20096;-38
2023/10/23 06:30:52;;;;;;;1.88;0.82;;;15.40;98.50;;;;;;4994141;28;20053;-37
2023/10/23 06:33:18;;;;;;;1.75;0.90;;;15.40;98.60;;;;;;4994018;28;20065;-37
2023/10/23 06:35:44;;;;;;;3.17;0.85;;;15.40;98.60;;;;;;4993929;28;20026;-36
2023/10/23 06:38:10;;;;;;;3.25;1.25;;;15.40;98.60;;;;;;4993886;28;20027;-37
2023/10/23 06:40:35;;;;;;;2.80;0.77;;;15.40;98.60;;;;;;4993905;28;20484;-38
2023/10/23 06:43:01;;;;;;;2.58;1.00;;;15.40;98.60;;;;;;4993708;28;20487;-40
2023/10/23 06:45:27;;;;;;;2.83;0.98;;;15.40;98.60;;;;;;4993760;28;20026;-41
2023/10/23 06:47:52;;;;;;;5.13;1.00;;;15.40;98.60;;;;;;4993797;28;20415;-38
2023/10/23 06:50:18;;;;;;;2.53;0.90;;;15.40;98.60;;;;;;4993842;28;20061;-42
2023/10/23 06:52:44;;;;;;;2.03;0.80;;;15.40;98.50;;;;;;4993770;28;20034;-39
2023/10/23 06:55:10;;;;;;;2.05;0.98;;;15.40;98.60;;;;;;4993546;28;20042;-38
2023/10/23 06:57:36;;;;;;;1.65;1.10;;;15.40;98.60;;;;;;4993513;28;20034;-40
2023/10/23 07:00:02;;;;;;;2.05;0.98;;;15.40;98.50;;;;;;4993654;28;20096;-41
2023/10/23 07:02:28;;;;;;;2.45;1.13;;;15.40;98.60;;;;;;4993735;28;20375;-38
2023/10/23 07:04:53;;;;;;;2.60;1.10;;;15.40;98.60;;;;;;4993444;28;20026;-39
2023/10/23 07:07:19;;;;;;;2.15;1.08;;;15.40;98.60;;;;;;4993151;28;20088;-42
2023/10/23 07:09:45;;;;;;;2.13;1.00;;;15.40;98.50;;;;;;4993359;28;20030;-39
2023/10/23 07:12:11;;;;;;;2.65;0.98;;;15.40;98.60;;;;;;4993256;28;20030;-40
2023/10/23 07:14:37;;;;;;;2.30;1.10;;;15.40;98.60;;;;;;4993262;28;20484;-39
2023/10/23 07:17:03;;;;;;;1.85;1.00;;;15.40;98.60;;;;;;4993027;28;20084;-41
2023/10/23 07:19:28;;;;;;;2.22;1.30;;;15.40;98.60;;;;;;4993280;28;20029;-39
2023/10/23 07:21:54;;;;;;;2.05;0.90;;;15.40;98.60;;;;;;4993202;28;20026;-39
2023/10/23 07:24:19;;;;;;;2.50;1.30;;;15.40;98.60;;;;;;4992953;28;20026;-39
2023/10/23 07:26:45;;;;;;;2.22;1.20;;;15.40;98.60;;;;;;4992975;28;20499;-39
2023/10/23 07:29:11;;;;;;;1.55;0.80;;;15.40;98.60;;;;;;4993107;28;20026;-37
2023/10/23 07:31:37;;;;;;;2.00;1.10;;;15.40;98.70;;;;;;4993010;28;20034;-38
2023/10/23 07:34:03;;;;;;;2.13;1.38;;;15.50;98.60;;;;;;4992923;28;20476;-37
2023/10/23 07:36:29;;;;;;;1.40;1.23;;;15.50;98.70;;;;;;4992778;28;20057;-39
2023/10/23 07:38:55;;;;;;;2.03;1.10;;;15.40;98.70;;;;;;4992766;28;20054;-42
2023/10/23 07:41:21;;;;;;;1.75;1.13;;;15.50;99.00;;;;;;4993092;28;20038;-39
2023/10/23 07:43:46;;;;;;;2.97;1.50;;;15.40;98.70;;;;;;4993533;28;20428;-37
2023/10/23 07:46:12;;;;;;;2.10;1.55;;;15.50;98.80;;;;;;4992573;28;20484;-39
2023/10/23 07:48:38;;;;;;;1.60;1.00;;;15.50;98.80;;;;;;4992709;28;20034;-39
2023/10/23 07:51:03;;;;;;;2.08;1.27;;;15.40;98.70;;;;;;4992647;28;20208;-39
2023/10/23 07:53:33;;;;;;;2.65;1.27;;;15.50;98.70;;;;;;4992457;28;20050;-39
2023/10/23 07:56:04;;;;;;;1.48;1.00;;;15.50;99.10;;;;;;4992429;28;20064;-39
2023/10/23 07:58:30;;;;;;;1.48;1.10;;;15.50;98.80;;;;;;4992531;28;20089;-39
2023/10/23 08:01:06;;;;;;;2.38;1.35;;;15.50;98.80;;;;;;4992482;28;20472;-39
2023/10/23 08:03:33;;;;;;;1.60;1.00;;;15.50;98.80;;;;;;4992452;28;20035;-39
2023/10/23 08:06:00;;;;;;;2.28;1.13;;;15.50;98.80;;;;;;4992190;28;20020;-39
2023/10/23 08:08:26;;;;;;;3.58;1.13;;;15.50;98.80;;;;;;4992285;28;20026;-39
2023/10/23 08:10:51;;;;;;;1.70;0.95;;;15.50;98.80;;;;;;4992274;28;20125;-39
2023/10/23 08:13:17;;;;;;;1.52;1.08;;;15.50;98.80;;;;;;4992242;28;20061;-39
2023/10/23 08:15:43;;;;;;;1.60;1.20;;;15.50;98.80;;;;;;4992162;28;20034;-39
2023/10/23 08:18:08;;;;;;;1.75;1.10;;;15.50;98.80;;;;;;4991474;28;20069;-41
2023/10/23 08:20:37;;;;;;;2.67;1.20;;;15.50;98.80;;;;;;4992035;28;20023;-38
2023/10/23 08:23:02;;;;;;;1.88;1.15;;;15.60;98.80;;;;;;4992063;28;20026;-39
2023/10/23 08:25:28;;;;;;;2.25;1.30;;;15.60;98.80;;;;;;4991966;28;20034;-39
2023/10/23 08:27:53;;;;;;;2.53;1.20;;;15.50;98.80;;;;;;4992162;28;20037;-39
2023/10/23 08:30:19;;;;;;;2.75;1.25;;;15.60;98.80;;;;;;4992132;28;20507;-39
2023/10/23 08:32:45;;;;;;;3.35;1.45;;;15.60;98.80;;;;;;4992026;28;20117;-38
2023/10/23 08:35:10;;;;;;;2.25;1.15;;;15.60;98.80;;;;;;4991892;28;20077;-39
2023/10/23 08:37:36;;;;;;;1.90;1.40;;;15.60;98.90;;;;;;4991976;28;20054;-39
2023/10/23 08:40:06;;;;;;;1.60;1.10;;;15.60;98.90;;;;;;4991966;28;20026;-39
2023/10/23 08:42:33;;;;;;;3.25;1.27;;;15.60;98.90;;;;;;4991746;28;20480;-39
2023/10/23 08:44:59;;;;;;;4.50;1.40;;;15.60;98.90;;;;;;4991881;28;20050;-38
2023/10/23 08:47:25;;;;;;;2.03;1.30;;;15.60;98.90;;;;;;4991831;28;20070;-39
2023/10/23 08:49:51;;;;;;;1.52;1.02;;;15.60;98.90;;;;;;4991817;28;20022;-38
2023/10/23 08:52:23;;;;;;;2.92;1.23;;;15.60;98.90;;;;;;4974369;28;20031;-39
2023/10/23 08:54:51;;;;;;;3.05;1.90;;;15.60;98.90;;;;;;4991858;28;20140;-39
2023/10/23 08:57:19;;;;;;;3.13;2.38;;;15.60;98.90;;;;;;4991672;28;20026;-39
2023/10/23 08:59:44;;;;;;;4.32;2.78;;;15.60;98.90;;;;;;4991889;28;20208;-38
2023/10/23 09:02:10;;;;;;;3.15;2.85;;;15.60;98.90;;;;;;4991553;28;20033;-38
2023/10/23 09:04:36;;;;;;;4.93;3.25;;;15.60;98.90;;;;;;4991767;28;20041;-39
2023/10/23 09:07:02;;;;;;;2.97;2.60;;;15.60;99.00;;;;;;4991563;28;20027;-38
2023/10/23 09:09:28;;;;;;;3.10;2.80;;;15.60;99.00;;;;;;4992022;28;20084;-38
2023/10/23 09:11:54;;;;;;;7.70;3.17;;;15.60;99.00;;;;;;4991884;28;20081;-37
2023/10/23 09:14:25;;;;;;;3.53;2.70;;;15.60;99.00;;;;;;4991658;28;20030;-37
2023/10/23 09:16:51;;;;;;;3.80;2.70;;;15.60;99.00;;;;;;4991714;28;20031;-38
2023/10/23 09:19:40;;;;;;;3.53;2.60;;;15.60;99.00;;;;;;4991527;28;20173;-39
2023/10/23 09:22:07;;;;;;;4.25;2.38;;;15.60;99.00;;;;;;4991913;28;20018;-40
2023/10/23 09:24:32;;;;;;;4.20;2.63;;;15.60;99.00;;;;;;4991682;28;20041;-37
2023/10/23 09:26:58;;;;;;;3.50;2.70;;;15.60;99.00;;;;;;4991452;28;20028;-39
2023/10/23 09:29:25;;;;;;;3.45;2.45;;;15.60;99.10;;;;;;4992070;28;20081;-38
2023/10/23 09:31:52;;;;;;;3.70;2.50;;;15.60;99.10;;;;;;4995268;28;20499;-38
2023/10/23 09:34:18;;;;;;;3.10;2.40;;;15.60;99.10;;;;;;4995109;28;20022;-38
2023/10/23 09:36:50;;;;;;;3.65;2.33;;;15.60;99.10;;;;;;4994976;28;20389;-38
2023/10/23 09:39:16;;;;;;;3.63;2.28;;;15.60;99.10;;;;;;4995139;28;20777;-37
2023/10/23 09:41:42;;;;;;;3.33;2.40;;;15.60;99.20;;;;;;4994936;28;20027;-37
2023/10/23 09:44:09;;;;;;;3.90;2.00;;;15.60;99.20;;;;;;4994871;28;20041;-37
2023/10/23 09:46:36;;;;;;;4.25;2.33;;;15.60;99.20;;;;;;4995030;28;20021;-36
2023/10/23 09:49:03;;;;;;;3.47;2.10;;;15.60;99.20;;;;;;4995037;28;20072;-37
2023/10/23 09:51:40;;;;;;;3.53;2.30;;;15.60;99.20;;;;;;4995026;28;20027;-36
2023/10/23 09:54:17;;;;;;;3.67;2.30;;;15.60;99.20;;;;;;4994697;28;20054;-36
2023/10/23 09:56:50;;;;;;;2.42;1.98;;;15.60;99.30;;;;;;4994661;28;20068;-37
2023/10/23 09:59:27;;;;;;;2.87;2.03;;;15.60;99.30;;;;;;4994714;28;20022;-39
2023/10/23 10:01:57;;;;;;;2.83;2.05;;;15.60;99.30;;;;;;4994697;28;20019;-40
2023/10/23 10:04:41;;;;;;;3.10;1.98;;;15.60;99.30;;;;;;4994628;28;20026;-38
2023/10/23 10:07:29;;;;;;;2.25;1.67;;;15.60;99.30;;;;;;4994568;28;20089;-39
2023/10/23 10:09:55;;;;;;;3.78;2.17;;;15.60;99.30;;;;;;4994537;28;20030;-40
2023/10/23 10:12:22;;;;;;;2.67;2.28;;;15.60;99.40;;;;;;4994496;28;20022;-37
2023/10/23 10:14:48;;;;;;;3.22;2.30;;;15.60;99.40;;;;;;4994397;28;20106;-37
2023/10/23 10:17:18;;;;;;;2.75;2.20;;;15.60;99.40;;;;;;4994204;28;20030;-39
2023/10/23 10:19:45;;;;;;;2.90;2.22;;;15.60;99.40;;;;;;4994473;28;20022;-41
2023/10/23 10:22:25;;;;;;;3.83;2.05;;;15.60;99.40;;;;;;4994292;28;20492;-38
2023/10/23 10:24:52;;;;;;;3.65;2.60;;;15.60;99.40;;;;;;4994185;28;20539;-39
2023/10/23 10:27:18;;;;;;;4.53;2.17;;;15.60;99.40;;;;;;4994240;28;20033;-43
2023/10/23 10:29:44;;;;;;;2.63;1.90;;;15.60;99.40;;;;;;4994080;28;20022;-45
2023/10/23 10:32:10;;;;;;;6.85;2.30;;;15.60;99.50;;;;;;4994337;28;20145;-42
2023/10/23 10:34:46;;;;;;;3.75;2.20;;;15.60;99.50;;;;;;4994155;28;20101;-42
2023/10/23 10:37:14;;;;;;;3.15;2.10;;;15.60;99.50;;;;;;4993975;28;20073;-42
2023/10/23 10:39:52;;;;;;;3.58;2.22;;;15.60;99.50;;;;;;4993968;28;20041;-40
2023/10/23 10:42:19;;;;;;;2.35;1.98;;;15.60;99.50;;;;;;4992940;28;20042;-42
2023/10/23 10:45:06;;;;;;;3.17;2.15;;;15.60;99.50;;;;;;4993845;28;20029;-39
2023/10/23 10:47:53;;;;;;;5.43;2.38;;;15.60;99.50;;;;;;4993904;28;20026;-40
2023/10/23 10:50:38;;;;;;;2.60;1.90;;;15.60;99.50;;;;;;4993868;28;20054;-45
2023/10/23 10:53:05;;;;;;;;;;;15.60;99.60;;;;;;4994186;28;20102;-39
2023/10/23 10:55:32;;;;;;;3.00;2.10;;;15.60;99.60;;;;;;4993917;28;19906;-40
2023/10/23 10:57:59;;;;;;;3.38;1.83;;;15.60;99.60;;;;;;4993584;28;20037;-39
2023/10/23 11:00:28;;;;;;;2.90;1.98;;;15.60;99.60;;;;;;4993819;28;20441;-41
2023/10/23 11:02:55;;;;;;;3.10;2.20;;;15.60;99.60;;;;;;4993602;28;20033;-42
2023/10/23 11:05:20;;;;;;;2.63;1.77;;;15.60;99.60;;;;;;4993420;28;20023;-38
2023/10/23 11:07:51;;;;;;;3.20;2.25;;;15.50;99.60;;;;;;4993405;28;20022;-40
2023/10/23 11:10:17;;;;;;;2.45;1.88;;;15.60;99.60;;;;;;4993526;28;20026;-39
2023/10/23 11:12:43;;;;;;;3.22;2.10;;;15.50;99.60;;;;;;4993371;28;20401;-38
2023/10/23 11:15:09;;;;;;;2.65;1.67;;;15.60;99.60;;;;;;4993247;28;20022;-38
2023/10/23 11:17:36;;;;;;;2.58;1.90;;;15.60;99.70;;;;;;4993019;28;20029;-39
2023/10/23 11:20:15;;;;;;;2.20;1.77;;;15.60;99.60;;;;;;4993478;28;20034;-39
2023/10/23 11:22:45;;;;;;;3.72;2.15;;;15.60;99.70;;;;;;4975630;28;20107;-38
2023/10/23 11:25:11;;;;;;;2.95;1.98;;;15.60;99.70;;;;;;4993092;28;20069;-38
2023/10/23 11:27:38;;;;;;;5.38;2.30;;;15.60;99.70;;;;;;4993108;28;20046;-39
2023/10/23 11:30:05;;;;;;;3.38;2.10;;;15.60;99.70;;;;;;4992957;28;20070;-39
2023/10/23 11:32:31;;;;;;;3.83;2.10;;;15.60;99.70;;;;;;4993022;28;20041;-39
2023/10/23 11:35:05;;;;;;;2.58;2.03;;;15.60;99.70;;;;;;4992887;28;20403;-39
2023/10/23 11:37:38;;;;;;;3.17;2.03;;;15.60;99.70;;;;;;4992820;28;20045;-38
2023/10/23 11:40:06;;;;;;;3.67;2.10;;;15.60;99.70;;;;;;4993020;28;20019;-38
2023/10/23 11:42:42;;;;;;;3.25;2.03;;;15.60;99.70;;;;;;4992527;28;20392;-38
2023/10/23 11:45:09;;;;;;;2.80;1.80;;;15.50;99.70;;;;;;4975485;28;20047;-37
2023/10/23 11:47:37;;;;;;;2.70;1.95;;;15.60;99.80;;;;;;4992703;28;20092;-38
2023/10/23 11:50:05;;;;;;;3.67;1.95;;;15.60;99.80;;;;;;4992722;28;20033;-37
2023/10/23 11:52:32;;;;;;;4.85;2.38;;;15.60;99.80;;;;;;4992064;28;20031;-38
2023/10/23 11:54:58;;;;;;;3.28;2.20;;;15.50;99.70;;;;;;4991986;28;20053;-39
2023/10/23 11:57:23;;;;;;;3.13;2.10;;;15.60;99.80;;;;;;4992434;28;20476;-38
2023/10/23 11:59:49;;;;;;;3.92;2.17;;;15.60;99.80;;;;;;4992601;28;20496;-38
2023/10/23 12:02:15;;;;;;;6.20;1.70;;;15.60;99.80;;;;;;4992692;28;20037;-40
2023/10/23 12:04:41;;;;;;;4.53;1.80;;;15.10;99.90;;;;;;4992328;28;20045;-40
2023/10/23 12:07:07;;;;;;;7.95;1.90;;;15.00;99.90;;;;;;4992229;28;20022;-44
2023/10/23 12:09:32;;;;;;;5.72;1.88;;;15.00;99.90;;;;;;4992376;28;20109;-39
2023/10/23 12:11:58;;;;;;;3.63;1.33;;;15.00;99.90;;;;;;4992585;28;20033;-40
2023/10/23 12:14:23;;;;;;;5.45;1.48;;;15.10;99.90;;;;;;4992213;28;20546;-40
2023/10/23 12:16:49;;;;;;;3.45;1.40;;;15.10;99.90;;;;;;4990863;28;20022;-43
2023/10/23 12:19:15;;;;;;;6.45;1.75;;;15.20;99.90;;;;;;4992172;28;20113;-40
2023/10/23 12:21:40;;;;;;;5.20;1.42;;;15.20;99.90;;;;;;4992131;28;20436;-41
2023/10/23 12:24:07;;;;;;;5.88;1.77;;;15.20;99.90;;;;;;4992089;28;20488;-40
2023/10/23 12:26:32;;;;;;;2.40;1.40;;;15.30;99.90;;;;;;4991923;28;20038;-39
2023/10/23 12:28:59;;;;;;;5.22;1.50;;;15.30;99.90;;;;;;4992171;28;20070;-39
2023/10/23 12:31:26;;;;;;;4.38;1.55;;;15.30;99.90;;;;;;4990925;28;20117;-42
2023/10/23 12:33:52;;;;;;;3.75;1.80;;;15.30;99.90;;;;;;4990789;28;20034;-42
2023/10/23 12:36:19;;;;;;;4.97;1.60;;;15.30;99.90;;;;;;4992172;28;20027;-41
2023/10/23 12:38:44;;;;;;;3.40;1.45;;;15.30;99.90;;;;;;4991864;28;20057;-40
2023/10/23 12:41:10;;;;;;;7.35;1.70;;;15.30;99.90;;;;;;4991983;28;20072;-39
2023/10/23 12:43:36;;;;;;;3.95;1.80;;;15.30;99.90;;;;;;4991788;28;20034;-41
2023/10/23 12:46:01;;;;;;;5.45;1.80;;;15.30;99.90;;;;;;4990498;28;20019;-40